• Join FlightAware (Why Join?)
  • Login
  • US Flag 
Rudolph Flight #1: Arrived! 
06:59AM EST


 

Airport Tracker/Info


-or-


 

Live Flight TrackerFlight Track Log ✈ CSN6877 ✈ 30-Oct-2013 ✈ ZWWW / URC - ZWAK / AKU

Flight Track Log - Related Links

Times and Time Zones

All times are in EDT time to prevent confusion due to time zone crossing. See the CSN6877 flight status page for this flight to view local times or setup timezone preferences in your user account.

Time Position Orientation Groundspeed Altitude Reporting Facility
EDT Latitude Longitude Course Direction KTS MPH feet Rate Location/Type
10:10PM 43.8481 87.2917 246° West  Level Estimated
10:11PM 43.7887 87.1095 246° West  Level Estimated
10:12PM 43.7291 86.9277 246° West  Level Estimated
10:13PM 43.6692 86.7462 246° West  Level Estimated
10:14PM 43.6090 86.5651 245° Southwest  Level Estimated
10:15PM 43.5485 86.3844 245° Southwest  Level Estimated
10:16PM 43.4877 86.2040 245° Southwest  Level Estimated
10:17PM 43.4267 86.0240 245° Southwest  Level Estimated
10:18PM 43.3654 85.8444 245° Southwest  Level Estimated
10:19PM 43.3037 85.6651 245° Southwest  Level Estimated
10:20PM 43.2419 85.4862 245° Southwest  Level Estimated
10:21PM 43.1797 85.3076 245° Southwest  Level Estimated
10:22PM 43.1172 85.1294 244° Southwest  Level Estimated
10:23PM 43.0545 84.9516 244° Southwest  Level Estimated
10:24PM 42.9915 84.7742 244° Southwest  Level Estimated
10:25PM 42.9282 84.5971 244° Southwest  Level Estimated
10:26PM 42.8647 84.4203 244° Southwest  Level Estimated
10:27PM 42.8009 84.2440 244° Southwest  Level Estimated
10:28PM 42.7368 84.0680 244° Southwest  Level Estimated
10:29PM 42.6724 83.8923 244° Southwest  Level Estimated
10:30PM 42.6078 83.7171 243° Southwest  Level Estimated
10:31PM 42.5429 83.5422 243° Southwest  Level Estimated
10:32PM 42.4778 83.3676 243° Southwest  Level Estimated
10:33PM 42.4123 83.1934 243° Southwest  Level Estimated
10:34PM 42.3467 83.0196 243° Southwest  Level Estimated
10:35PM 42.2807 82.8461 243° Southwest  Level Estimated
10:36PM 42.2145 82.6730 243° Southwest  Level Estimated
10:37PM 42.1480 82.5003 243° Southwest  Level Estimated
10:38PM 42.0813 82.3279 243° Southwest  Level Estimated
10:39PM 42.0143 82.1560 242° Southwest  Level Estimated
10:40PM 41.9471 81.9843 242° Southwest  Level Estimated
10:41PM 41.8796 81.8130 242° Southwest  Level Estimated
10:42PM 41.8119 81.6421 242° Southwest  Level Estimated
10:43PM 41.7439 81.4716 242° Southwest  Level Estimated
10:44PM 41.6756 81.3014 242° Southwest  Level Estimated
10:45PM 41.6071 81.1315 242° Southwest  Level Estimated
10:46PM 41.5384 80.9621 242° Southwest  Level Estimated
10:47PM 41.4694 80.7930 241° Southwest  Level Estimated
10:48PM 41.4001 80.6242 241° Southwest  Level Estimated
10:49PM 41.3306 80.4558 241° Southwest  Level Estimated
10:50PM 41.2625 80.2917 241° Southwest  Level Estimated
10:51PM 41.2625 80.2917 270° West  Level Estimated
10:52PM 41.2625 80.2917 270° West  Level Estimated
10:53PM 41.2625 80.2917 270° West  Level Estimated
10:54PM 41.2625 80.2917 270° West  Level Estimated
10:55PM 41.2625 80.2917 270° West  Level Estimated
10:56PM 41.2625 80.2917 270° West  Level Estimated
10:57PM 41.2625 80.2917 270° West  Level Estimated
10:58PM 41.2625 80.2917 270° West  Level Estimated
10:59PM 41.2625 80.2917 270° West  Level Estimated
11:00PM 41.2625 80.2917 270° West  Level Estimated
11:01PM 41.2625 80.2917 270° West  Level Estimated
11:02PM 41.2625 80.2917 270° West  Level Estimated